TAF LFRL
METAR LFRL
LFRL 082230Z AUTO 32008KT 9999 FEW046 06/02 Q1008 NOSIG=
LFRL 082200Z AUTO 30010KT 9999 FEW040/// SCT046/// BKN068/// ///TCU 06/02 Q1008 BECMG SCT035 SCT050=
LFRL 082130Z AUTO 30011KT 9999 FEW043 06/02 Q1008 NOSIG=
LFRL 082100Z AUTO 31010KT 9999 FEW038 06/02 Q1008 NOSIG=
LFRL 082030Z AUTO 31007KT 9999 BKN038/// BKN045/// BKN060/// ///TCU 05/02 Q1008 BECMG SCT035 SCT050=
WC LFRL
WS LFRL
WV LFRL